Time;durP1;ratioP1;P1;durP2;ratioP2;P2;SDS_P1;SDS_P2;PMS_P1;PMS_P2;Temp;Humidity;BMP_temperature;BMP_pressure;BME280_temperature;BME280_humidity;BME280_pressure;Samples;Min_cycle;Max_cycle;Signal;HPM_P1;HPM_P2
2022/08/22 00:02:18;;;;;;;2.62;1.40;;;;;;;16.04;100.00;97606.09;17784481;33;20101;-62
2022/08/22 00:12:52;;;;;;;1.60;1.10;;;;;;;16.02;100.00;97603.69;17886756;32;20075;-62
2022/08/22 00:23:32;;;;;;;2.95;1.27;;;;;;;16.00;100.00;97608.63;17975571;33;20090;-62
2022/08/22 00:34:24;;;;;;;2.95;1.50;;;;;;;16.02;100.00;97608.31;18066057;32;20076;-62
2022/08/22 00:45:12;;;;;;;3.50;1.17;;;;;;;16.00;100.00;97605.91;18232507;32;20117;-62
2022/08/22 00:55:45;;;;;;;1.92;1.20;;;;;;;15.96;100.00;97601.38;18231755;32;20114;-62
2022/08/22 01:06:04;;;;;;;3.17;1.60;;;;;;;15.95;100.00;97602.50;18231272;32;20406;-63
2022/08/22 01:16:41;;;;;;;1.65;1.02;;;;;;;15.87;100.00;97595.88;18230993;32;20058;-62
2022/08/22 01:27:57;;;;;;;3.25;1.70;;;;;;;15.77;100.00;97585.94;18232834;32;20051;-63
2022/08/22 01:38:29;;;;;;;2.92;1.10;;;;;;;15.70;100.00;97574.66;18240649;32;20062;-63
2022/08/22 01:48:57;;;;;;;2.30;1.08;;;;;;;15.58;100.00;97567.81;18240416;32;20110;-62
2022/08/22 01:59:40;;;;;;;3.67;1.58;;;;;;;15.51;100.00;97561.16;18239458;32;20482;-63
2022/08/22 02:10:17;;;;;;;4.05;1.40;;;;;;;15.46;100.00;97548.44;18043184;32;20097;-62
2022/08/22 02:20:39;;;;;;;3.30;1.60;;;;;;;15.36;100.00;97554.09;18042837;32;20102;-62
2022/08/22 02:30:53;;;;;;;2.65;1.45;;;;;;;15.15;100.00;97554.50;18042491;32;20503;-62
2022/08/22 02:41:21;;;;;;;2.97;1.55;;;;;;;15.06;100.00;97546.25;18041538;32;20083;-63
2022/08/22 02:51:54;;;;;;;5.15;1.90;;;;;;;14.96;100.00;97538.25;18041330;32;20607;-62
2022/08/22 03:02:37;;;;;;;3.40;1.27;;;;;;;14.85;100.00;97534.94;18072217;32;20077;-63
2022/08/22 03:12:53;;;;;;;3.20;1.40;;;;;;;14.69;100.00;97541.75;18112079;32;20063;-62
2022/08/22 03:23:22;;;;;;;2.55;1.45;;;;;;;14.61;100.00;97536.97;18110837;32;20484;-62
2022/08/22 03:33:34;;;;;;;4.85;1.58;;;;;;;14.49;100.00;97543.72;18110527;32;20074;-63
2022/08/22 03:44:24;;;;;;;2.25;1.55;;;;;;;14.43;100.00;97544.94;18109804;32;20093;-63
2022/08/22 03:55:20;;;;;;;6.77;1.50;;;;;;;14.24;100.00;97543.03;18108660;32;20082;-62
2022/08/22 04:05:51;;;;;;;2.65;1.50;;;;;;;14.12;100.00;97552.78;18225336;32;20472;-63
2022/08/22 04:16:45;;;;;;;2.27;1.27;;;;;;;14.06;100.00;97535.75;18233652;32;20051;-62
2022/08/22 04:27:15;;;;;;;3.80;1.25;;;;;;;14.02;100.00;97551.03;18233669;32;20081;-62
2022/08/22 04:38:03;;;;;;;3.25;1.45;;;;;;;14.02;100.00;97561.91;18233330;32;20059;-62
2022/08/22 04:48:42;;;;;;;2.67;1.40;;;;;;;14.07;100.00;97569.97;18097653;32;20087;-62
2022/08/22 04:59:11;;;;;;;6.18;1.62;;;;;;;14.00;100.00;97564.09;18097358;32;20067;-62
2022/08/22 05:09:23;;;;;;;2.53;1.50;;;;;;;14.02;100.00;97568.13;18103080;32;20125;-63
2022/08/22 05:19:33;;;;;;;1.75;1.17;;;;;;;13.98;100.00;97569.03;18143315;32;20069;-63
2022/08/22 05:30:21;;;;;;;2.45;1.40;;;;;;;14.02;100.00;97579.00;18241109;32;20065;-62
2022/08/22 05:40:57;;;;;;;2.12;1.55;;;;;;;14.31;100.00;97578.03;18240646;32;20135;-62
2022/08/22 05:51:28;;;;;;;2.12;1.37;;;;;;;14.67;100.00;97587.53;18240266;32;20367;-62
2022/08/22 06:02:21;;;;;;;3.62;1.48;;;;;;;15.04;100.00;97600.19;18237933;32;20054;-62
2022/08/22 06:13:06;;;;;;;2.12;1.45;;;;;;;15.44;100.00;97621.50;18238287;32;20446;-62
2022/08/22 06:23:27;;;;;;;4.97;2.58;;;;;;;15.89;100.00;97623.63;18225323;32;20070;-63
2022/08/22 06:33:38;;;;;;;4.30;2.30;;;;;;;16.13;100.00;97642.47;18238208;32;20391;-63
2022/08/22 06:43:55;;;;;;;2.28;1.58;;;;;;;16.43;100.00;97643.66;18237822;32;20085;-63
2022/08/22 06:54:06;;;;;;;2.33;1.50;;;;;;;16.91;100.00;97646.91;18237372;32;20080;-63
2022/08/22 07:04:24;;;;;;;;;;;;;;;;;;;;;
2022/08/22 07:15:10;;;;;;;2.22;1.50;;;;;;;17.69;97.75;97656.59;18236603;32;20088;-62
2022/08/22 07:25:15;;;;;;;3.72;1.60;;;;;;;17.89;97.09;97666.94;18236460;32;20105;-63
2022/08/22 07:35:35;;;;;;;2.75;1.60;;;;;;;18.39;93.09;97654.00;18235740;32;20098;-63
2022/08/22 07:46:13;;;;;;;3.58;1.37;;;;;;;18.93;88.98;97646.25;18235541;32;20063;-62
2022/08/22 07:56:38;;;;;;;3.25;1.95;;;;;;;19.48;80.74;97652.03;18234613;32;20370;-63
2022/08/22 08:06:51;;;;;;;3.17;1.40;;;;;;;20.00;74.12;97653.75;18234201;32;20101;-63
2022/08/22 08:17:30;;;;;;;4.80;1.73;;;;;;;20.52;73.95;97660.00;18233771;32;20058;-62
2022/08/22 08:39:26;;;;;;;2.95;1.65;;;;;;;21.40;69.05;97651.72;18213832;32;20102;-63
2022/08/22 08:50:05;;;;;;;2.72;1.70;;;;;;;21.82;65.07;97659.78;18217574;32;20095;-63
2022/08/22 09:01:05;;;;;;;3.90;1.70;;;;;;;22.22;62.42;97661.81;18220725;32;20054;-63
2022/08/22 09:12:23;;;;;;;2.90;1.60;;;;;;;22.60;62.77;97654.28;18217332;32;20066;-63
2022/08/22 09:23:35;;;;;;;4.15;1.60;;;;;;;22.95;62.33;97654.44;18230676;32;20054;-63
2022/08/22 09:34:56;;;;;;;4.50;1.77;;;;;;;23.28;58.94;97656.16;18230579;32;20409;-63
2022/08/22 09:45:26;;;;;;;3.75;2.25;;;;;;;23.51;55.52;97644.50;18229734;32;20062;-63
2022/08/22 10:07:12;;;;;;;4.80;1.92;;;;;;;24.25;58.22;97645.84;18238053;32;20055;-63
2022/08/22 10:18:37;;;;;;;2.97;1.75;;;;;;;24.44;54.74;97642.28;18104857;32;20134;-63
2022/08/22 10:29:12;;;;;;;3.25;1.85;;;;;;;24.69;52.92;97642.81;18102528;32;20086;-64
2022/08/22 10:39:26;;;;;;;3.92;1.92;;;;;;;24.99;51.65;97639.44;18103938;32;20128;-63
2022/08/22 10:50:02;;;;;;;2.75;1.83;;;;;;;25.34;52.35;97633.78;18103455;32;20093;-63
2022/08/22 11:00:41;;;;;;;2.78;1.73;;;;;;;25.71;53.08;97619.38;18207897;32;20047;-63
2022/08/22 11:11:17;;;;;;;3.47;2.10;;;;;;;26.10;50.66;97612.03;18236648;32;20055;-63
2022/08/22 11:21:33;;;;;;;2.50;1.92;;;;;;;25.93;42.92;97608.59;18236472;32;20051;-63
2022/08/22 11:32:01;;;;;;;3.65;2.10;;;;;;;26.33;49.89;97604.41;18235760;32;20105;-62
2022/08/22 11:42:30;;;;;;;2.05;1.70;;;;;;;26.67;45.74;97587.78;18235391;32;20063;-63
2022/08/22 11:53:19;;;;;;;;;;;;;;;;;;;;;
2022/08/22 12:04:24;;;;;;;;;;;;;;;;;;;;;
2022/08/22 12:14:50;;;;;;;2.28;1.77;;;;;;;27.88;42.72;97560.72;18228901;32;20490;-63
2022/08/22 12:25:51;;;;;;;;;;;;;;;;;;;;;
2022/08/22 12:36:55;;;;;;;2.85;2.03;;;;;;;28.33;37.09;97552.22;18233300;32;20046;-62
2022/08/22 12:48:57;;;;;;;3.90;2.05;;;;;;;28.87;38.11;97555.94;18232261;32;20350;-63
2022/08/22 12:59:17;;;;;;;4.05;2.10;;;;;;;29.53;39.60;97537.31;18225174;32;20042;-63
2022/08/22 13:09:48;;;;;;;3.42;1.80;;;;;;;29.66;32.76;97526.56;18231382;32;20043;-62
2022/08/22 13:20:00;;;;;;;2.92;1.80;;;;;;;30.03;34.13;97522.50;18230984;32;20069;-62
2022/08/22 13:30:30;;;;;;;2.95;1.85;;;;;;;29.85;39.00;97517.78;18241172;32;20106;-62
2022/08/22 13:40:43;;;;;;;4.22;2.28;;;;;;;30.51;36.09;97512.75;18240760;32;20116;-62
2022/08/22 13:51:05;;;;;;;2.55;1.73;;;;;;;30.80;34.77;97518.94;18226226;32;20382;-62
2022/08/22 14:01:42;;;;;;;3.92;1.70;;;;;;;31.12;37.08;97512.31;18239920;32;20065;-62
2022/08/22 14:12:05;;;;;;;2.55;1.52;;;;;;;31.62;30.62;97497.12;18223954;32;20381;-62
2022/08/22 14:22:22;;;;;;;2.40;2.17;;;;;;;30.66;34.92;97491.91;18238826;32;20059;-62
2022/08/22 14:32:46;;;;;;;4.50;2.47;;;;;;;30.71;41.13;97490.66;18225770;32;20042;-62
2022/08/22 14:43:18;;;;;;;2.57;1.60;;;;;;;30.37;37.02;97478.13;18224440;32;20137;-62
2022/08/22 14:53:30;;;;;;;2.50;1.90;;;;;;;30.15;34.54;97476.63;18225098;32;20050;-62
2022/08/22 15:03:43;;;;;;;2.97;1.75;;;;;;;29.45;41.08;97466.09;18236755;32;20058;-62
2022/08/22 15:14:18;;;;;;;;;;;;;;;;;;;;;
2022/08/22 15:24:31;;;;;;;1.90;1.52;;;;;;;27.99;37.39;97450.41;18236508;32;19972;-62
2022/08/22 15:34:40;;;;;;;3.58;1.90;;;;;;;27.66;38.46;97432.03;18235837;32;20565;-63
2022/08/22 15:44:46;;;;;;;5.15;1.75;;;;;;;27.15;44.70;97430.91;18234460;32;20117;-62
2022/08/22 15:54:53;;;;;;;2.47;1.98;;;;;;;26.65;50.46;97420.97;18234981;32;20054;-62
2022/08/22 16:05:38;;;;;;;2.08;1.40;;;;;;;26.21;52.09;97425.31;18234287;32;20046;-64
2022/08/22 16:15:47;;;;;;;2.12;1.75;;;;;;;25.94;51.94;97421.84;18233944;32;20372;-62
2022/08/22 16:25:57;;;;;;;2.25;1.70;;;;;;;25.50;51.83;97416.94;18233642;32;20068;-62
2022/08/22 16:36:37;;;;;;;2.87;1.92;;;;;;;25.07;56.19;97413.56;18233003;32;20358;-61
2022/08/22 16:46:45;;;;;;;1.60;1.33;;;;;;;24.97;56.37;97410.25;18218687;32;20043;-62
2022/08/22 16:57:21;;;;;;;2.87;2.00;;;;;;;24.67;60.80;97410.97;18232100;32;20383;-62
2022/08/22 17:07:35;;;;;;;2.40;1.73;;;;;;;23.86;62.79;97412.63;18167624;32;20090;-63
2022/08/22 17:18:15;;;;;;;2.00;1.55;;;;;;;23.24;66.12;97407.00;18168367;32;20073;-62
2022/08/22 17:28:30;;;;;;;2.80;2.03;;;;;;;22.84;66.62;97410.78;18158573;32;20128;-62
2022/08/22 17:38:44;;;;;;;2.78;1.90;;;;;;;22.32;67.89;97413.44;18145670;32;20368;-63
2022/08/22 17:48:57;;;;;;;2.47;1.62;;;;;;;21.91;71.91;97412.75;18157986;32;20074;-62
2022/08/22 17:59:10;;;;;;;2.40;1.73;;;;;;;21.53;73.30;97430.53;18045396;32;20466;-62
2022/08/22 18:09:31;;;;;;;3.72;1.95;;;;;;;21.24;75.06;97443.41;18097134;32;20447;-62
2022/08/22 18:19:56;;;;;;;5.40;1.90;;;;;;;20.96;75.79;97444.09;18068977;32;20079;-62
2022/08/22 18:30:15;;;;;;;7.03;1.70;;;;;;;20.62;75.70;97457.13;18092839;32;20065;-62
2022/08/22 18:40:36;;;;;;;4.97;1.85;;;;;;;20.25;79.86;97473.50;18114008;32;20095;-63
2022/08/22 18:51:11;;;;;;;5.00;2.03;;;;;;;19.88;82.17;97473.34;18111844;32;20059;-62
2022/08/22 19:01:33;;;;;;;3.67;2.07;;;;;;;19.45;82.96;97482.72;18155720;32;20114;-62
2022/08/22 19:12:05;;;;;;;3.05;2.15;;;;;;;19.21;86.91;97492.38;18237199;32;20069;-62
2022/08/22 19:22:29;;;;;;;3.57;1.90;;;;;;;18.97;87.49;97495.72;18236179;32;20480;-62
2022/08/22 19:33:01;;;;;;;2.28;1.92;;;;;;;18.71;88.45;97504.00;18236128;32;20150;-62
2022/08/22 19:43:30;;;;;;;2.75;1.95;;;;;;;18.49;88.48;97508.56;18235645;32;20102;-62
2022/08/22 19:53:37;;;;;;;3.67;2.00;;;;;;;18.32;90.70;97516.81;18221684;32;20102;-62
2022/08/22 20:04:02;;;;;;;3.80;2.00;;;;;;;18.07;92.27;97505.59;18234313;32;20099;-62
2022/08/22 20:14:16;;;;;;;2.35;2.08;;;;;;;17.89;92.93;97512.97;18220864;32;20046;-62
2022/08/22 20:24:47;;;;;;;2.05;1.85;;;;;;;17.69;92.51;97517.97;18234045;32;20476;-62
2022/08/22 20:35:01;;;;;;;2.00;1.80;;;;;;;17.51;93.56;97519.84;18232858;32;20065;-62
2022/08/22 20:45:18;;;;;;;3.42;2.10;;;;;;;17.34;94.76;97533.50;18232704;32;20099;-62
2022/08/22 20:55:26;;;;;;;4.85;1.98;;;;;;;17.21;95.50;97541.50;18232612;32;20070;-62
2022/08/22 21:05:44;;;;;;;3.67;2.17;;;;;;;17.08;96.90;97540.47;18231492;32;20387;-62
2022/08/22 21:15:56;;;;;;;3.80;1.90;;;;;;;17.00;98.05;97533.03;18231535;32;20452;-62
2022/08/22 21:26:23;;;;;;;4.18;2.47;;;;;;;16.92;98.67;97536.56;18230994;32;20109;-62
2022/08/22 21:36:30;;;;;;;4.60;2.47;;;;;;;16.86;100.00;97535.06;18216756;32;20090;-62
2022/08/22 21:46:33;;;;;;;3.33;2.62;;;;;;;16.85;100.00;97536.97;18210463;32;20068;-62
2022/08/22 21:56:39;;;;;;;4.50;2.42;;;;;;;16.79;100.00;97538.25;18227367;32;20074;-62
2022/08/22 22:06:42;;;;;;;4.00;2.17;;;;;;;16.72;100.00;97538.69;18175884;32;20113;-62
2022/08/22 22:16:44;;;;;;;2.57;2.07;;;;;;;16.61;100.00;97534.62;18163275;32;20050;-62
2022/08/22 22:26:47;;;;;;;6.32;2.12;;;;;;;16.45;100.00;97547.84;18175498;32;20054;-62
2022/08/22 22:36:52;;;;;;;2.65;2.15;;;;;;;16.31;100.00;97571.66;18175593;32;20042;-62
2022/08/22 22:46:57;;;;;;;2.30;1.80;;;;;;;16.20;100.00;97560.19;18175332;32;20047;-63
2022/08/22 22:57:02;;;;;;;3.15;2.33;;;;;;;16.00;100.00;97573.19;18173443;32;20047;-63
2022/08/22 23:07:17;;;;;;;2.57;1.90;;;;;;;15.97;100.00;97578.47;18233386;32;20105;-62
2022/08/22 23:17:29;;;;;;;4.60;2.12;;;;;;;15.83;100.00;97584.75;18236668;32;20127;-62
2022/08/22 23:27:38;;;;;;;3.85;2.15;;;;;;;15.62;100.00;97583.53;18236003;32;20081;-62
2022/08/22 23:38:04;;;;;;;2.08;1.80;;;;;;;15.46;100.00;97589.31;18236254;32;20125;-62
2022/08/22 23:48:10;;;;;;;4.07;2.03;;;;;;;15.38;100.00;97606.38;18235295;32;20381;-62
2022/08/22 23:58:21;;;;;;;3.25;2.12;;;;;;;15.29;100.00;97603.53;18234646;32;20085;-62
